Time;durP1;ratioP1;P1;durP2;ratioP2;P2;SDS_P1;SDS_P2;PMS_P1;PMS_P2;Temp;Humidity;BMP_temperature;BMP_pressure;BME280_temperature;BME280_humidity;BME280_pressure;Samples;Min_cycle;Max_cycle;Signal;HPM_P1;HPM_P2
2022/05/08 00:00:33;;;;;;;14.73;9.25;;;;;;;;;;4996954;28;20233;-62
2022/05/08 00:02:58;;;;;;;18.70;9.82;;;;;;;;;;5019309;28;20235;-62
2022/05/08 00:05:24;;;;;;;14.40;9.10;;;;;;;;;;5023082;28;20235;-62
2022/05/08 00:07:49;;;;;;;22.02;9.65;;;;;;;;;;5023130;28;20212;-62
2022/05/08 00:10:14;;;;;;;17.65;9.35;;;;;;;;;;5022235;28;20216;-63
2022/05/08 00:12:39;;;;;;;18.10;10.40;;;;;;;;;;5005517;28;20643;-63
2022/05/08 00:15:05;;;;;;;20.33;9.80;;;;;;;;;;5003087;28;20267;-63
2022/05/08 00:17:34;;;;;;;20.90;9.90;;;;;;;;;;4997932;28;20907;-63
2022/05/08 00:19:59;;;;;;;19.90;9.73;;;;;;;;;;5014094;28;20208;-62
2022/05/08 00:22:24;;;;;;;18.85;9.90;;;;;;;;;;5014618;28;20625;-62
2022/05/08 00:24:50;;;;;;;18.88;10.30;;;;;;;;;;5002400;28;20212;-63
2022/05/08 00:27:15;;;;;;;21.58;10.30;;;;;;;;;;5003400;28;20573;-62
2022/05/08 00:29:40;;;;;;;19.02;10.00;;;;;;;;;;5003681;28;20214;-62
2022/05/08 00:32:06;;;;;;;16.58;10.05;;;;;;;;;;5003051;28;20555;-62
2022/05/08 00:34:31;;;;;;;17.52;9.23;;;;;;;;;;5003318;28;20220;-62
2022/05/08 00:36:56;;;;;;;20.75;11.02;;;;;;;;;;5002796;28;20215;-62
2022/05/08 00:39:21;;;;;;;23.25;10.20;;;;;;;;;;5033575;28;20214;-63
2022/05/08 00:41:47;;;;;;;24.40;10.85;;;;;;;;;;5015107;28;20764;-63
2022/05/08 00:44:13;;;;;;;19.70;10.00;;;;;;;;;;5013308;28;20223;-63
2022/05/08 00:46:38;;;;;;;21.83;10.20;;;;;;;;;;5018750;28;20211;-63
2022/05/08 00:49:03;;;;;;;19.40;9.93;;;;;;;;;;5022107;28;20242;-62
2022/05/08 00:51:29;;;;;;;16.58;9.15;;;;;;;;;;5022250;28;20286;-62
2022/05/08 00:53:54;;;;;;;20.40;10.07;;;;;;;;;;5021467;28;20690;-63
2022/05/08 00:56:20;;;;;;;19.83;9.30;;;;;;;;;;5018091;28;20265;-62
2022/05/08 00:58:47;;;;;;;20.60;8.70;;;;;;;;;;5003712;28;20311;-62
2022/05/08 01:01:13;;;;;;;17.02;8.13;;;;;;;;;;5016027;28;20695;-63
2022/05/08 01:03:38;;;;;;;21.13;9.05;;;;;;;;;;4994921;28;20384;-63
2022/05/08 01:06:05;;;;;;;22.27;8.50;;;;;;;;;;5012414;28;20756;-62
2022/05/08 01:08:30;;;;;;;20.25;8.30;;;;;;;;;;5015776;28;20615;-63
2022/05/08 01:10:55;;;;;;;20.38;8.05;;;;;;;;;;5016658;28;20220;-62
2022/05/08 01:13:20;;;;;;;24.17;8.75;;;;;;;;;;5003009;28;20254;-62
2022/05/08 01:15:46;;;;;;;20.50;7.45;;;;;;;;;;5003285;28;20216;-63
2022/05/08 01:18:12;;;;;;;20.88;7.80;;;;;;;;;;5021094;28;21350;-63
2022/05/08 01:20:38;;;;;;;25.25;7.97;;;;;;;;;;5022299;28;20220;-63
2022/05/08 01:23:03;;;;;;;21.75;7.05;;;;;;;;;;5016444;28;20224;-63
2022/05/08 01:25:29;;;;;;;27.05;7.38;;;;;;;;;;4995823;28;20635;-63
2022/05/08 01:27:54;;;;;;;22.05;7.20;;;;;;;;;;4994828;28;20307;-63
2022/05/08 01:30:19;;;;;;;26.10;7.63;;;;;;;;;;4995066;28;22477;-63
2022/05/08 01:32:44;;;;;;;27.27;7.47;;;;;;;;;;5019422;28;20284;-63
2022/05/08 01:35:10;;;;;;;22.23;7.43;;;;;;;;;;5021928;28;20208;-63
2022/05/08 01:37:35;;;;;;;23.98;6.82;;;;;;;;;;5022327;28;20223;-63
2022/05/08 01:40:00;;;;;;;22.70;7.28;;;;;;;;;;5012477;28;20211;-62
2022/05/08 01:42:27;;;;;;;22.27;6.85;;;;;;;;;;5002807;28;20294;-63
2022/05/08 01:44:52;;;;;;;23.88;7.43;;;;;;;;;;5002886;28;20557;-63
2022/05/08 01:50:01;;;;;;;22.52;6.88;;;;;;;;;;5013010;28;20269;-63
2022/05/08 01:52:27;;;;;;;25.67;6.80;;;;;;;;;;5014336;28;20500;-63
2022/05/08 01:54:52;;;;;;;24.00;6.90;;;;;;;;;;5017642;28;20582;-63
2022/05/08 01:57:18;;;;;;;19.95;6.78;;;;;;;;;;5011008;28;20218;-63
2022/05/08 01:59:43;;;;;;;24.23;6.70;;;;;;;;;;5001949;28;20224;-63
2022/05/08 02:02:08;;;;;;;26.33;6.03;;;;;;;;;;5002509;28;20259;-63
2022/05/08 02:04:33;;;;;;;27.20;6.50;;;;;;;;;;5002250;28;20303;-63
2022/05/08 02:06:59;;;;;;;22.83;6.65;;;;;;;;;;5002162;28;20219;-63
2022/05/08 02:09:24;;;;;;;29.35;6.40;;;;;;;;;;5017455;28;20220;-63
2022/05/08 02:11:50;;;;;;;21.85;6.50;;;;;;;;;;5005425;28;20216;-63
2022/05/08 02:14:15;;;;;;;18.17;6.38;;;;;;;;;;4993392;28;20680;-63
2022/05/08 02:16:40;;;;;;;23.27;6.57;;;;;;;;;;5015638;28;20612;-63
2022/05/08 02:19:05;;;;;;;23.83;5.95;;;;;;;;;;5020118;28;20262;-62
2022/05/08 02:21:31;;;;;;;27.58;6.60;;;;;;;;;;5021017;28;20227;-63
2022/05/08 02:23:56;;;;;;;24.00;5.85;;;;;;;;;;5010357;28;20265;-63
2022/05/08 02:26:21;;;;;;;29.85;6.18;;;;;;;;;;5001949;28;20298;-63
2022/05/08 02:28:47;;;;;;;26.35;5.55;;;;;;;;;;5002208;28;20217;-63
2022/05/08 02:31:12;;;;;;;24.70;6.80;;;;;;;;;;5001871;28;20227;-63
2022/05/08 02:33:37;;;;;;;20.90;5.18;;;;;;;;;;4996703;28;20264;-63
2022/05/08 02:36:03;;;;;;;27.58;6.50;;;;;;;;;;4996654;28;20235;-63
2022/05/08 02:38:28;;;;;;;22.98;5.72;;;;;;;;;;4998380;28;20212;-64
2022/05/08 02:40:53;;;;;;;23.83;5.55;;;;;;;;;;5004041;28;20219;-63
2022/05/08 02:43:21;;;;;;;24.73;5.55;;;;;;;;;;5004748;28;20644;-64
2022/05/08 02:45:46;;;;;;;24.92;5.07;;;;;;;;;;5006065;28;20212;-64
2022/05/08 02:48:11;;;;;;;25.50;5.35;;;;;;;;;;5024309;28;20227;-63
2022/05/08 02:50:37;;;;;;;23.65;5.22;;;;;;;;;;5024447;28;20223;-63
2022/05/08 02:53:02;;;;;;;24.50;5.20;;;;;;;;;;5024619;28;20349;-63
2022/05/08 03:00:55;;;;;;;29.95;6.55;;;;;;;;;;5014889;28;20575;-63
2022/05/08 03:03:20;;;;;;;22.92;4.93;;;;;;;;;;5001932;28;20232;-63
2022/05/08 03:05:46;;;;;;;25.10;5.53;;;;;;;;;;5004980;28;20266;-64
2022/05/08 03:08:11;;;;;;;25.63;5.55;;;;;;;;;;5004233;28;20225;-64
2022/05/08 03:13:20;;;;;;;21.88;4.43;;;;;;;;;;5004962;28;20265;-63
2022/05/08 03:15:45;;;;;;;22.35;4.50;;;;;;;;;;5005547;28;20209;-63
2022/05/08 03:18:11;;;;;;;23.42;4.78;;;;;;;;;;4999704;28;20216;-63
2022/05/08 03:20:36;;;;;;;25.45;4.85;;;;;;;;;;5016561;28;20405;-63
2022/05/08 03:23:01;;;;;;;19.65;4.28;;;;;;;;;;5029392;28;20235;-62
2022/05/08 03:25:26;;;;;;;25.13;5.25;;;;;;;;;;5019284;28;20214;-63
2022/05/08 03:27:53;;;;;;;18.92;4.95;;;;;;;;;;5005252;28;20227;-63
2022/05/08 03:30:20;;;;;;;24.83;4.70;;;;;;;;;;5004813;28;20242;-62
2022/05/08 03:32:45;;;;;;;24.58;4.22;;;;;;;;;;5004018;28;20210;-63
2022/05/08 03:35:11;;;;;;;21.35;4.50;;;;;;;;;;5004450;28;20575;-62
2022/05/08 03:37:36;;;;;;;29.70;5.72;;;;;;;;;;5004740;28;20606;-64
2022/05/08 03:40:01;;;;;;;23.08;4.50;;;;;;;;;;5002037;28;20817;-62
2022/05/08 03:42:27;;;;;;;26.65;4.80;;;;;;;;;;4997434;28;20528;-63
2022/05/08 03:44:53;;;;;;;24.58;4.40;;;;;;;;;;4995676;28;20224;-62
2022/05/08 03:47:19;;;;;;;21.27;5.20;;;;;;;;;;4997123;28;20209;-62
2022/05/08 03:49:44;;;;;;;21.50;4.72;;;;;;;;;;5004697;28;20219;-63
2022/05/08 03:52:10;;;;;;;23.10;4.70;;;;;;;;;;5003197;28;20566;-62
2022/05/08 03:54:35;;;;;;;18.15;4.38;;;;;;;;;;5004368;28;20263;-62
2022/05/08 03:57:00;;;;;;;20.88;4.07;;;;;;;;;;5004255;28;20223;-62
2022/05/08 03:59:25;;;;;;;20.60;4.57;;;;;;;;;;5042261;28;20314;-63
2022/05/08 04:01:54;;;;;;;24.08;4.90;;;;;;;;;;5033608;28;20224;-63
2022/05/08 04:04:20;;;;;;;22.77;4.75;;;;;;;;;;5036519;28;20789;-62
2022/05/08 04:06:45;;;;;;;19.98;4.55;;;;;;;;;;5035093;28;20317;-63
2022/05/08 04:09:10;;;;;;;26.73;4.80;;;;;;;;;;5035123;28;20565;-62
2022/05/08 04:11:35;;;;;;;26.20;5.40;;;;;;;;;;5031254;28;20211;-62
2022/05/08 04:14:01;;;;;;;24.05;4.82;;;;;;;;;;5022631;28;20701;-62
2022/05/08 04:16:26;;;;;;;27.55;4.70;;;;;;;;;;5025583;28;20248;-62
2022/05/08 04:18:51;;;;;;;26.98;4.80;;;;;;;;;;5043235;28;20199;-62
2022/05/08 04:21:17;;;;;;;20.38;4.70;;;;;;;;;;5042105;28;20709;-63
2022/05/08 04:26:26;;;;;;;25.60;5.18;;;;;;;;;;5026448;28;20277;-63
2022/05/08 04:28:51;;;;;;;25.38;5.38;;;;;;;;;;5013983;28;20212;-62
2022/05/08 04:31:16;;;;;;;23.25;4.95;;;;;;;;;;5015159;28;20220;-64
2022/05/08 04:33:42;;;;;;;21.13;4.53;;;;;;;;;;5020041;28;20216;-63
2022/05/08 04:36:07;;;;;;;23.05;5.28;;;;;;;;;;5022332;28;20223;-64
2022/05/08 04:38:32;;;;;;;22.95;4.57;;;;;;;;;;5023287;28;20219;-64
2022/05/08 04:40:58;;;;;;;27.65;5.38;;;;;;;;;;5023830;28;20219;-64
2022/05/08 04:43:23;;;;;;;21.23;4.57;;;;;;;;;;5021419;28;20282;-63
2022/05/08 04:45:48;;;;;;;24.10;4.18;;;;;;;;;;5035791;28;20265;-63
2022/05/08 04:48:13;;;;;;;24.80;5.63;;;;;;;;;;5051484;28;20434;-61
2022/05/08 04:50:40;;;;;;;23.02;4.70;;;;;;;;;;5052269;28;20260;-61
2022/05/08 04:53:05;;;;;;;24.17;5.00;;;;;;;;;;5051796;28;20230;-62
2022/05/08 04:55:31;;;;;;;23.73;5.10;;;;;;;;;;5051263;28;20428;-61
2022/05/08 04:57:56;;;;;;;24.17;4.40;;;;;;;;;;5048610;28;20245;-61
2022/05/08 05:00:21;;;;;;;22.20;4.72;;;;;;;;;;5051708;28;20219;-62
2022/05/08 05:02:47;;;;;;;24.25;4.60;;;;;;;;;;5048461;28;20289;-61
2022/05/08 05:05:12;;;;;;;20.52;4.38;;;;;;;;;;5051651;28;20199;-62
2022/05/08 05:07:39;;;;;;;25.73;4.55;;;;;;;;;;5052146;28;20233;-64
2022/05/08 05:10:05;;;;;;;19.55;4.50;;;;;;;;;;5050848;28;20207;-62
2022/05/08 05:12:30;;;;;;;21.35;4.75;;;;;;;;;;5052100;28;20575;-62
2022/05/08 05:14:55;;;;;;;23.30;5.07;;;;;;;;;;5052654;28;20218;-62
2022/05/08 05:17:20;;;;;;;21.95;4.32;;;;;;;;;;5051284;28;20563;-65
2022/05/08 05:19:46;;;;;;;30.13;4.72;;;;;;;;;;5052621;28;20210;-62
2022/05/08 05:22:11;;;;;;;20.33;4.38;;;;;;;;;;5051886;28;20235;-62
2022/05/08 05:24:36;;;;;;;23.77;4.47;;;;;;;;;;5051507;28;20206;-64
2022/05/08 05:27:02;;;;;;;25.33;5.20;;;;;;;;;;5039809;28;20218;-62
2022/05/08 05:29:27;;;;;;;24.52;4.38;;;;;;;;;;5012723;28;20561;-62
2022/05/08 05:31:52;;;;;;;23.60;4.30;;;;;;;;;;5012027;28;20219;-62
2022/05/08 05:34:17;;;;;;;19.27;4.30;;;;;;;;;;5012419;28;20219;-63
2022/05/08 05:36:43;;;;;;;19.50;4.20;;;;;;;;;;5012469;28;20208;-62
2022/05/08 05:39:08;;;;;;;20.50;4.03;;;;;;;;;;5011125;28;20219;-61
2022/05/08 05:41:33;;;;;;;19.42;3.97;;;;;;;;;;5012240;28;20224;-62
2022/05/08 05:43:59;;;;;;;22.65;4.57;;;;;;;;;;5012242;28;20215;-61
2022/05/08 05:49:08;;;;;;;24.35;5.00;;;;;;;;;;5031604;28;20215;-62
2022/05/08 05:51:33;;;;;;;17.17;3.63;;;;;;;;;;5032204;28;20215;-62
2022/05/08 05:53:58;;;;;;;19.33;4.32;;;;;;;;;;5030532;28;20287;-62
2022/05/08 05:56:24;;;;;;;21.10;4.45;;;;;;;;;;5001913;28;20667;-62
2022/05/08 05:58:49;;;;;;;16.85;4.35;;;;;;;;;;4992314;28;20221;-62
2022/05/08 06:01:14;;;;;;;20.35;4.32;;;;;;;;;;5007796;28;20693;-62
2022/05/08 06:03:39;;;;;;;21.35;4.55;;;;;;;;;;5011574;28;20228;-62
2022/05/08 06:06:05;;;;;;;20.52;4.00;;;;;;;;;;5010795;28;20295;-62
2022/05/08 06:08:30;;;;;;;24.17;4.32;;;;;;;;;;5013114;28;20247;-62
2022/05/08 06:10:56;;;;;;;20.73;4.18;;;;;;;;;;5015230;28;20216;-63
2022/05/08 06:13:22;;;;;;;16.88;3.80;;;;;;;;;;5014938;28;20216;-63
2022/05/08 06:15:47;;;;;;;18.77;3.90;;;;;;;;;;5015951;28;20209;-63
2022/05/08 06:18:12;;;;;;;23.65;4.65;;;;;;;;;;5015715;28;20227;-63
2022/05/08 06:20:38;;;;;;;19.48;3.83;;;;;;;;;;5015180;28;20209;-62
2022/05/08 06:23:03;;;;;;;19.60;4.25;;;;;;;;;;5015506;28;20232;-62
2022/05/08 06:25:29;;;;;;;18.00;3.92;;;;;;;;;;5015433;28;20211;-62
2022/05/08 06:27:54;;;;;;;22.50;3.88;;;;;;;;;;5014809;28;20208;-62
2022/05/08 06:30:19;;;;;;;17.63;3.47;;;;;;;;;;5015232;28;20205;-63
2022/05/08 06:32:45;;;;;;;21.50;3.65;;;;;;;;;;5015706;28;20282;-62
2022/05/08 06:35:10;;;;;;;21.30;3.83;;;;;;;;;;5014565;28;20236;-62
2022/05/08 06:37:35;;;;;;;19.00;3.30;;;;;;;;;;5015880;28;20238;-63
2022/05/08 06:40:00;;;;;;;21.63;3.88;;;;;;;;;;5014711;28;20208;-64
2022/05/08 06:42:26;;;;;;;17.23;3.10;;;;;;;;;;5013930;28;20244;-61
2022/05/08 06:44:51;;;;;;;16.27;3.60;;;;;;;;;;5015108;28;20543;-63
2022/05/08 06:47:16;;;;;;;16.00;3.25;;;;;;;;;;5014663;28;20215;-64
2022/05/08 06:49:41;;;;;;;16.23;3.22;;;;;;;;;;5014758;28;20634;-63
2022/05/08 06:52:07;;;;;;;18.42;4.53;;;;;;;;;;5014825;28;20235;-63
2022/05/08 06:54:32;;;;;;;11.52;2.83;;;;;;;;;;5017657;28;20216;-64
2022/05/08 06:56:59;;;;;;;18.33;3.53;;;;;;;;;;5017139;28;20308;-65
2022/05/08 07:02:10;;;;;;;15.52;3.30;;;;;;;;;;5025820;28;20637;-62
2022/05/08 07:04:35;;;;;;;13.85;3.10;;;;;;;;;;5035000;28;20204;-63
2022/05/08 07:07:01;;;;;;;19.45;4.50;;;;;;;;;;5034531;28;20207;-63
2022/05/08 07:09:26;;;;;;;17.80;3.45;;;;;;;;;;5034000;28;20200;-64
2022/05/08 07:11:51;;;;;;;16.15;3.35;;;;;;;;;;5034697;28;20662;-63
2022/05/08 07:14:17;;;;;;;17.20;3.33;;;;;;;;;;5053153;28;20243;-63
2022/05/08 07:16:42;;;;;;;18.20;3.25;;;;;;;;;;5053894;28;20242;-64
2022/05/08 07:19:08;;;;;;;14.90;3.28;;;;;;;;;;5053560;28;20215;-64
2022/05/08 07:21:33;;;;;;;18.75;3.65;;;;;;;;;;5053592;28;20210;-64
2022/05/08 07:23:58;;;;;;;15.30;4.10;;;;;;;;;;5053514;28;20203;-64
2022/05/08 07:26:23;;;;;;;14.48;3.30;;;;;;;;;;5053487;28;20304;-65
2022/05/08 07:28:49;;;;;;;16.75;3.33;;;;;;;;;;5054285;28;20206;-64
2022/05/08 07:31:14;;;;;;;16.00;3.67;;;;;;;;;;5053209;28;20261;-65
2022/05/08 07:33:39;;;;;;;20.17;3.35;;;;;;;;;;5054258;28;20284;-64
2022/05/08 07:36:14;;;;;;;15.85;3.10;;;;;;;;;;5050228;28;20218;-64
2022/05/08 07:38:41;;;;;;;14.38;3.83;;;;;;;;;;5053327;28;20289;-64
2022/05/08 07:41:06;;;;;;;16.15;3.20;;;;;;;;;;5053734;28;20211;-64
2022/05/08 07:43:31;;;;;;;16.10;3.92;;;;;;;;;;5053487;28;20748;-65
2022/05/08 07:45:57;;;;;;;16.30;3.50;;;;;;;;;;5053298;28;20318;-65
2022/05/08 07:48:22;;;;;;;17.00;3.65;;;;;;;;;;5053375;28;20207;-64
2022/05/08 07:50:48;;;;;;;13.77;3.83;;;;;;;;;;5053504;28;20219;-64
2022/05/08 07:53:13;;;;;;;15.00;4.03;;;;;;;;;;5052570;28;20211;-64
2022/05/08 07:55:39;;;;;;;15.35;3.85;;;;;;;;;;5047222;28;20224;-62
2022/05/08 07:58:04;;;;;;;18.58;3.92;;;;;;;;;;5033472;28;20377;-63
2022/05/08 08:00:29;;;;;;;13.25;3.28;;;;;;;;;;5033144;28;20212;-63
2022/05/08 08:02:54;;;;;;;16.40;3.47;;;;;;;;;;5048152;28;20227;-63
2022/05/08 08:05:20;;;;;;;17.45;3.30;;;;;;;;;;5037014;28;20226;-62
2022/05/08 08:07:46;;;;;;;17.08;3.40;;;;;;;;;;5047411;28;20222;-63
2022/05/08 08:10:11;;;;;;;14.32;3.20;;;;;;;;;;5050237;28;20241;-63
2022/05/08 08:12:36;;;;;;;13.63;3.20;;;;;;;;;;5050882;28;21043;-63
2022/05/08 08:15:02;;;;;;;12.60;3.10;;;;;;;;;;5053039;28;20238;-63
2022/05/08 08:17:27;;;;;;;14.77;3.15;;;;;;;;;;5053390;28;20203;-63
2022/05/08 08:19:53;;;;;;;12.18;3.17;;;;;;;;;;5051987;28;20211;-61
2022/05/08 08:22:18;;;;;;;13.25;3.25;;;;;;;;;;5051635;28;20222;-63
2022/05/08 08:24:44;;;;;;;15.45;3.08;;;;;;;;;;5053329;28;20204;-63
2022/05/08 08:27:09;;;;;;;13.70;3.50;;;;;;;;;;5052081;28;20221;-63
2022/05/08 08:29:34;;;;;;;15.98;3.63;;;;;;;;;;5052956;28;20214;-63
2022/05/08 08:32:00;;;;;;;14.10;3.15;;;;;;;;;;5051040;28;20214;-63
2022/05/08 08:34:26;;;;;;;11.43;2.78;;;;;;;;;;5051612;28;20215;-61
2022/05/08 08:36:52;;;;;;;15.55;2.92;;;;;;;;;;5053017;28;20214;-61
2022/05/08 08:39:17;;;;;;;14.27;3.67;;;;;;;;;;5052942;28;20278;-61
2022/05/08 08:41:43;;;;;;;12.55;3.28;;;;;;;;;;5052371;28;20286;-62
2022/05/08 08:49:41;;;;;;;12.32;3.20;;;;;;;;;;5030714;28;20234;-62
2022/05/08 08:52:06;;;;;;;11.43;3.03;;;;;;;;;;5030898;28;20223;-62
2022/05/08 08:54:31;;;;;;;13.52;3.40;;;;;;;;;;5032276;28;20212;-64
2022/05/08 08:56:57;;;;;;;13.10;3.00;;;;;;;;;;5029705;28;20207;-63
2022/05/08 08:59:22;;;;;;;12.32;2.83;;;;;;;;;;5031370;28;20207;-63
2022/05/08 09:01:47;;;;;;;16.13;3.13;;;;;;;;;;5030885;28;20314;-62
2022/05/08 09:04:13;;;;;;;13.82;2.90;;;;;;;;;;5030791;28;20302;-63
2022/05/08 09:06:40;;;;;;;15.50;3.22;;;;;;;;;;5032730;28;20692;-63
2022/05/08 09:09:22;;;;;;;12.48;2.65;;;;;;;;;;5031733;28;20311;-63
2022/05/08 09:11:47;;;;;;;12.60;3.05;;;;;;;;;;5032860;28;20212;-63
2022/05/08 09:14:25;;;;;;;12.55;2.90;;;;;;;;;;5031446;28;20211;-63
2022/05/08 09:16:51;;;;;;;14.40;3.42;;;;;;;;;;5032095;28;20571;-62
2022/05/08 09:19:28;;;;;;;14.40;3.03;;;;;;;;;;5030392;28;20258;-62
2022/05/08 09:21:57;;;;;;;9.32;2.75;;;;;;;;;;5032133;28;20709;-63
2022/05/08 09:24:22;;;;;;;11.93;3.22;;;;;;;;;;5030340;28;20208;-63
2022/05/08 09:26:50;;;;;;;15.65;3.30;;;;;;;;;;5032298;28;20262;-62
2022/05/08 09:29:21;;;;;;;10.65;2.60;;;;;;;;;;5031801;28;20232;-63
2022/05/08 09:31:47;;;;;;;12.02;3.03;;;;;;;;;;5028419;28;20315;-63
2022/05/08 09:34:12;;;;;;;15.10;2.80;;;;;;;;;;5010945;28;20314;-63
2022/05/08 09:36:37;;;;;;;12.88;2.70;;;;;;;;;;5028835;28;20208;-64
2022/05/08 09:39:03;;;;;;;13.65;3.05;;;;;;;;;;5018175;28;20544;-63
2022/05/08 09:41:32;;;;;;;10.63;2.97;;;;;;;;;;5025783;28;20220;-63
2022/05/08 09:44:08;;;;;;;11.68;3.05;;;;;;;;;;5016070;28;21012;-63
2022/05/08 09:46:37;;;;;;;13.13;3.53;;;;;;;;;;5063777;28;20212;-63
2022/05/08 09:49:02;;;;;;;9.88;2.70;;;;;;;;;;5052936;28;20215;-63
2022/05/08 09:51:27;;;;;;;9.88;2.78;;;;;;;;;;5050040;28;20240;-63
2022/05/08 09:53:53;;;;;;;12.50;2.83;;;;;;;;;;5024311;28;20209;-62
2022/05/08 09:56:18;;;;;;;10.82;2.70;;;;;;;;;;5057781;28;20874;-63
2022/05/08 09:58:44;;;;;;;10.57;2.65;;;;;;;;;;5041930;28;20744;-63
2022/05/08 10:01:09;;;;;;;12.13;2.92;;;;;;;;;;5041324;28;20267;-63
2022/05/08 10:03:35;;;;;;;9.65;2.80;;;;;;;;;;5053084;28;20230;-63
2022/05/08 10:06:00;;;;;;;8.93;2.47;;;;;;;;;;5054371;28;20248;-63
2022/05/08 10:08:28;;;;;;;12.23;2.90;;;;;;;;;;5058587;28;20292;-62
2022/05/08 10:14:03;;;;;;;15.85;2.97;;;;;;;;;;5053264;28;20612;-62
2022/05/08 10:16:47;;;;;;;10.35;2.58;;;;;;;;;;5060872;28;20218;-63
2022/05/08 10:19:21;;;;;;;8.35;2.30;;;;;;;;;;5042472;28;20211;-63
2022/05/08 10:21:53;;;;;;;7.50;2.90;;;;;;;;;;5041638;28;20218;-63
2022/05/08 10:24:28;;;;;;;16.13;3.30;;;;;;;;;;5048137;28;20231;-63
2022/05/08 10:27:10;;;;;;;9.98;2.67;;;;;;;;;;5060199;28;20237;-63
2022/05/08 10:29:36;;;;;;;13.07;3.05;;;;;;;;;;5059201;28;20242;-63
2022/05/08 10:32:01;;;;;;;12.50;2.75;;;;;;;;;;5050638;28;20242;-63
2022/05/08 10:34:37;;;;;;;10.07;3.05;;;;;;;;;;5053564;28;20211;-63
2022/05/08 10:37:11;;;;;;;10.63;2.97;;;;;;;;;;5054762;28;20254;-63
2022/05/08 10:39:38;;;;;;;11.50;2.72;;;;;;;;;;5055498;28;20225;-63
2022/05/08 10:42:04;;;;;;;10.20;2.85;;;;;;;;;;5053846;28;20226;-63
2022/05/08 10:44:33;;;;;;;13.77;2.70;;;;;;;;;;5053763;28;20211;-63
2022/05/08 10:47:16;;;;;;;12.93;2.90;;;;;;;;;;5054759;28;20697;-63
2022/05/08 10:49:42;;;;;;;11.10;2.80;;;;;;;;;;5054245;28;20211;-63
2022/05/08 10:52:08;;;;;;;11.48;2.85;;;;;;;;;;5054390;28;20639;-61
2022/05/08 10:54:33;;;;;;;6.95;2.22;;;;;;;;;;5053040;28;20211;-62
2022/05/08 10:56:58;;;;;;;7.80;2.20;;;;;;;;;;5051529;28;20222;-60
2022/05/08 10:59:43;;;;;;;7.75;2.20;;;;;;;;;;5053843;28;20215;-60
2022/05/08 11:02:08;;;;;;;10.75;2.15;;;;;;;;;;5050464;28;20235;-61
2022/05/08 11:04:33;;;;;;;10.40;2.53;;;;;;;;;;5049026;28;20219;-61
2022/05/08 11:06:59;;;;;;;9.80;2.47;;;;;;;;;;5034856;28;20368;-61
2022/05/08 11:09:24;;;;;;;12.63;2.47;;;;;;;;;;5051466;28;20211;-61
2022/05/08 11:11:49;;;;;;;11.65;2.67;;;;;;;;;;5052684;28;20252;-61
2022/05/08 11:14:22;;;;;;;10.77;2.90;;;;;;;;;;5051727;28;20222;-61
2022/05/08 11:16:51;;;;;;;9.50;2.50;;;;;;;;;;5033894;28;20218;-60
2022/05/08 11:19:16;;;;;;;11.82;2.50;;;;;;;;;;5052018;28;20211;-61
2022/05/08 11:21:42;;;;;;;10.00;2.28;;;;;;;;;;5052416;28;20230;-61
2022/05/08 11:24:20;;;;;;;9.88;2.33;;;;;;;;;;5049234;28;20300;-61
2022/05/08 11:26:46;;;;;;;9.73;2.25;;;;;;;;;;5052588;28;20237;-61
2022/05/08 11:29:14;;;;;;;9.15;2.20;;;;;;;;;;5051808;28;20753;-61
2022/05/08 11:36:04;;;;;;;11.23;2.83;;;;;;;;;;5051358;28;20282;-61
2022/05/08 11:37:17;;;;;;;8.70;2.17;;;;;;;;;;5049944;28;20258;-61
2022/05/08 11:39:42;;;;;;;8.95;2.17;;;;;;;;;;5051964;28;20202;-61
2022/05/08 11:42:08;;;;;;;11.43;2.00;;;;;;;;;;5051171;28;20234;-61
2022/05/08 11:44:33;;;;;;;12.52;2.72;;;;;;;;;;5033275;28;20215;-61
2022/05/08 11:46:58;;;;;;;9.38;2.10;;;;;;;;;;5051732;28;20211;-60
2022/05/08 11:49:24;;;;;;;8.75;2.30;;;;;;;;;;5051505;28;20658;-61
2022/05/08 11:51:50;;;;;;;8.38;2.22;;;;;;;;;;5051262;28;20358;-61
2022/05/08 11:54:17;;;;;;;9.10;2.22;;;;;;;;;;5050862;28;20678;-61
2022/05/08 11:56:43;;;;;;;9.73;2.25;;;;;;;;;;5051883;28;20219;-61
2022/05/08 11:59:15;;;;;;;8.50;2.20;;;;;;;;;;5050643;28;20619;-61
2022/05/08 12:01:43;;;;;;;8.95;2.20;;;;;;;;;;5037875;28;20212;-61
2022/05/08 12:04:26;;;;;;;8.68;2.30;;;;;;;;;;5016160;28;20232;-61
2022/05/08 12:07:10;;;;;;;7.00;2.30;;;;;;;;;;5031355;28;20232;-60
2022/05/08 12:09:36;;;;;;;10.45;2.20;;;;;;;;;;5044534;28;20211;-61
2022/05/08 12:12:20;;;;;;;7.72;2.08;;;;;;;;;;5050319;28;20213;-61
2022/05/08 12:14:45;;;;;;;7.53;2.05;;;;;;;;;;5051400;28;20218;-61
2022/05/08 12:17:11;;;;;;;9.57;2.33;;;;;;;;;;5050810;28;20211;-60
2022/05/08 12:19:36;;;;;;;8.35;2.33;;;;;;;;;;5032615;28;20215;-60
2022/05/08 12:22:17;;;;;;;5.13;2.15;;;;;;;;;;5050660;28;20704;-60
2022/05/08 12:24:43;;;;;;;8.95;2.20;;;;;;;;;;5050981;28;20222;-61
2022/05/08 12:27:08;;;;;;;6.68;2.28;;;;;;;;;;5049912;28;20218;-61
2022/05/08 12:29:33;;;;;;;8.13;2.30;;;;;;;;;;5051202;28;20203;-61
2022/05/08 12:31:59;;;;;;;8.45;2.03;;;;;;;;;;5051544;28;20753;-61
2022/05/08 12:34:24;;;;;;;7.53;1.90;;;;;;;;;;5049315;28;20211;-61
2022/05/08 12:36:50;;;;;;;8.13;2.20;;;;;;;;;;5051072;28;20726;-61
2022/05/08 12:39:16;;;;;;;12.18;2.45;;;;;;;;;;5050588;28;20550;-61
2022/05/08 12:41:41;;;;;;;7.20;1.90;;;;;;;;;;5050187;28;20286;-61
2022/05/08 12:44:07;;;;;;;7.25;2.03;;;;;;;;;;5049296;28;20298;-61
2022/05/08 12:46:32;;;;;;;9.93;2.58;;;;;;;;;;5050882;28;20401;-61
2022/05/08 12:49:02;;;;;;;8.18;2.20;;;;;;;;;;5049673;28;20297;-61
2022/05/08 12:51:34;;;;;;;5.32;2.03;;;;;;;;;;5050446;28;20545;-61
2022/05/08 12:54:02;;;;;;;6.70;1.98;;;;;;;;;;5048641;28;20211;-61
2022/05/08 12:56:28;;;;;;;7.60;1.80;;;;;;;;;;5050195;28;20254;-61
2022/05/08 13:01:37;;;;;;;6.47;1.70;;;;;;;;;;5049562;28;20218;-61
2022/05/08 13:04:04;;;;;;;7.60;1.90;;;;;;;;;;5049346;28;20219;-61
2022/05/08 13:06:29;;;;;;;8.48;1.70;;;;;;;;;;5050627;28;20234;-61
2022/05/08 13:08:55;;;;;;;7.78;1.90;;;;;;;;;;5049798;28;20234;-60
2022/05/08 13:11:21;;;;;;;7.63;2.20;;;;;;;;;;5050075;28;20265;-61
2022/05/08 13:13:46;;;;;;;6.53;1.80;;;;;;;;;;5049843;28;20765;-61
2022/05/08 13:16:14;;;;;;;8.73;1.92;;;;;;;;;;5049067;28;20218;-61
2022/05/08 13:18:39;;;;;;;7.45;1.65;;;;;;;;;;5050577;28;20240;-61
2022/05/08 13:21:05;;;;;;;6.72;1.90;;;;;;;;;;5049706;28;20218;-61
2022/05/08 13:23:30;;;;;;;6.03;1.80;;;;;;;;;;5048975;28;20364;-61
2022/05/08 13:25:55;;;;;;;6.47;1.75;;;;;;;;;;5050262;28;20207;-61
2022/05/08 13:28:21;;;;;;;6.05;1.50;;;;;;;;;;5049896;28;20215;-61
2022/05/08 13:30:46;;;;;;;6.03;1.85;;;;;;;;;;5049339;28;20339;-61
2022/05/08 13:33:11;;;;;;;6.18;1.83;;;;;;;;;;5049831;28;20211;-61
2022/05/08 13:35:37;;;;;;;7.47;2.13;;;;;;;;;;5049872;28;20265;-61
2022/05/08 13:38:02;;;;;;;6.13;1.98;;;;;;;;;;5049011;28;20223;-61
2022/05/08 13:40:27;;;;;;;7.15;1.90;;;;;;;;;;5049975;28;20280;-61
2022/05/08 13:42:52;;;;;;;7.68;1.52;;;;;;;;;;5049659;28;20225;-61
2022/05/08 13:45:18;;;;;;;6.20;1.80;;;;;;;;;;5049051;28;20218;-61
2022/05/08 13:47:43;;;;;;;8.77;2.08;;;;;;;;;;5051734;28;20222;-61
2022/05/08 13:50:09;;;;;;;6.20;1.60;;;;;;;;;;5050213;28;20211;-62
2022/05/08 13:52:35;;;;;;;6.57;1.75;;;;;;;;;;5051315;28;20211;-61
2022/05/08 13:55:00;;;;;;;8.98;2.08;;;;;;;;;;5050872;28;20585;-61
2022/05/08 13:57:30;;;;;;;6.30;1.60;;;;;;;;;;5050859;28;20670;-61
2022/05/08 13:59:56;;;;;;;7.00;1.80;;;;;;;;;;5025700;28;20253;-61
2022/05/08 14:02:22;;;;;;;10.77;1.70;;;;;;;;;;5048241;28;20244;-61
2022/05/08 14:04:47;;;;;;;4.63;1.60;;;;;;;;;;5050889;28;20236;-60
2022/05/08 14:07:13;;;;;;;9.27;1.92;;;;;;;;;;5049722;28;20207;-61
2022/05/08 14:09:38;;;;;;;5.38;1.63;;;;;;;;;;5051886;28;20678;-61
2022/05/08 14:12:03;;;;;;;8.27;1.85;;;;;;;;;;5050594;28;20211;-61
2022/05/08 14:14:29;;;;;;;5.80;1.60;;;;;;;;;;5033528;28;20211;-61
2022/05/08 14:16:54;;;;;;;8.50;1.90;;;;;;;;;;5051525;28;20210;-61
2022/05/08 14:19:19;;;;;;;12.23;1.90;;;;;;;;;;5050779;28;22995;-61
2022/05/08 14:21:44;;;;;;;6.70;2.03;;;;;;;;;;5050166;28;20211;-61
2022/05/08 14:24:10;;;;;;;11.05;1.88;;;;;;;;;;5050681;28;20219;-61
2022/05/08 14:26:35;;;;;;;6.07;1.67;;;;;;;;;;5050869;28;20634;-61
2022/05/08 14:29:00;;;;;;;5.65;1.70;;;;;;;;;;5051229;28;20211;-61
2022/05/08 14:36:53;;;;;;;7.35;1.60;;;;;;;;;;5055212;28;20252;-61
2022/05/08 14:39:18;;;;;;;7.05;1.80;;;;;;;;;;5054168;28;20310;-61
2022/05/08 14:41:45;;;;;;;7.07;1.90;;;;;;;;;;5055207;28;20202;-61
2022/05/08 14:44:10;;;;;;;8.98;1.95;;;;;;;;;;5052583;28;20670;-61
2022/05/08 14:46:35;;;;;;;8.70;2.03;;;;;;;;;;5052892;28;20210;-61
2022/05/08 14:49:01;;;;;;;9.25;1.70;;;;;;;;;;5054708;28;20808;-61
2022/05/08 14:51:28;;;;;;;6.80;1.65;;;;;;;;;;5054899;28;20211;-60
2022/05/08 14:53:53;;;;;;;6.57;1.67;;;;;;;;;;5053654;28;20277;-61
2022/05/08 14:56:18;;;;;;;8.45;1.90;;;;;;;;;;5041556;28;20247;-60
2022/05/08 14:58:45;;;;;;;6.47;1.80;;;;;;;;;;5035279;28;20204;-61
2022/05/08 15:01:12;;;;;;;5.82;1.60;;;;;;;;;;5033674;28;20216;-61
2022/05/08 15:03:37;;;;;;;6.28;1.95;;;;;;;;;;5032979;28;20224;-61
2022/05/08 15:06:03;;;;;;;7.93;1.85;;;;;;;;;;5034810;28;20551;-60